Terminal Aerodrome Forecast
Issued by NWS

Home | Current Version | Previous Version | Text Only | Print | Product List | Glossary On
Versions: 1 2 3 4 5 6 7 8 9 10 11 12 13 14 15 16 17 18 19 20 21 22 23
467
FTUS42 KFFC 241140
TAFFTY
TAF
KFTY 241140Z 2412/2512 00000KT P6SM FEW250
     FM241500 16006KT P6SM FEW025
     FM241800 17008KT P6SM SCT040
     FM250000 17004KT P6SM SCT040
     FM250500 20006KT P6SM BKN035
     FM250900 24008KT P6SM BKN015 PROB30 2509/2512 5SM -SHRA BR
      BKN009=

USA.gov is the U.S. government's official web portal to all federal, state and local government web resources and services.